ADDS METAR Data INFO
IDs: Format: Raw Decoded Include TAF

Data at: 0923 UTC 17 Oct 2017

KBHK 170851Z AUTO 24010KT 10SM CLR 09/M02 A3000 RMK AO2 SLP150 T00941022 56005
KBHK 170751Z AUTO 29004KT 10SM CLR 08/M02 A3000 RMK AO2 SLP153 T00781017
KBHK 170651Z AUTO 26009KT 10SM CLR 10/M01 A3001 RMK AO2 SLP154 T01001011 402060022
KBHK 170551Z AUTO 00000KT 10SM CLR 04/M01 A3002 RMK AO2 SLP163 T00441006 10167 20022 58004
KBHK 170451Z AUTO 04003KT 10SM CLR 04/M01 A3003 RMK AO2 SLP169 T00391006
KBHK 170351Z AUTO 00000KT 10SM CLR 05/M01 A3003 RMK AO2 SLP174 T00501011
KBHK 170251Z AUTO 15003KT 10SM CLR 06/M01 A3003 RMK AO2 SLP175 T00561011 58002
KBHK 170151Z AUTO 12003KT 10SM CLR 07/M01 A3004 RMK AO2 SLP178 T00721006
KBHK 170051Z AUTO 25008KT 10SM CLR 12/M01 A3003 RMK AO2 SLP172 T01171006
KBHK 162351Z AUTO 28010KT 10SM CLR 17/M01 A3004 RMK AO2 SLP167 T01671011 10206 20167 53003
KBHK 162251Z AUTO 29011KT 10SM CLR 19/M02 A3003 RMK AO2 SLP162 T01941017
KBHK 162151Z AUTO 28020G27KT 10SM CLR 20/M02 A3003 RMK AO2 PK WND 28027/2132 SLP160 T02001022
KBHK 162051Z AUTO 29017G22KT 10SM CLR 21/M01 A3003 RMK AO2 PK WND 28026/2007 SLP160 T02061006 58011
KBHK 161951Z AUTO 29019G26KT 10SM CLR 20/M01 A3004 RMK AO2 PK WND 30027/1852 SLP164 T02001006
KBHK 161851Z AUTO 30015G27KT 10SM CLR 19/M01 A3005 RMK AO2 PK WND 28028/1841 SLP170 T01891011
KBHK 161751Z AUTO 27016KT 10SM CLR 17/01 A3006 RMK AO2 SLP176 T01720006 10172 20072 58001
KBHK 161651Z AUTO 28013KT 10SM CLR 16/00 A3007 RMK AO2 SLP182 T01560000
KBHK 161551Z AUTO 26010KT 10SM CLR 11/00 A3007 RMK AO2 SLP189 T01110000
KBHK 161451Z AUTO 25009KT 10SM CLR 09/M01 A3007 RMK AO2 SLP189 T00941006 53005
KBHK 161351Z AUTO 25008KT 10SM CLR 08/M01 A3006 RMK AO2 SLP187 T00781011
KBHK 161251Z AUTO 24013KT 10SM CLR 08/M01 A3005 RMK AO2 SLP183 T00831011
KBHK 161151Z AUTO 23014KT 10SM CLR 09/M02 A3005 RMK AO2 SLP177 T00891017 10106 20078 56012
KBHK 161051Z AUTO 24014KT 10SM CLR 09/M02 A3006 RMK AO2 SLP180 T00891017
KBHK 160951Z AUTO 23013KT 10SM CLR 09/M02 A3007 RMK AO2 SLP180 T00941017
KBHK 160851Z AUTO 23010KT 10SM CLR 09/M02 A3009 RMK AO2 SLP188 T00941017 56017
KBHK 160751Z AUTO 22015G21KT 10SM CLR 11/M02 A3010 RMK AO2 SLP190 T01061017
KBHK 160651Z AUTO 21011KT 10SM CLR 09/M02 A3012 RMK AO2 SLP198 T00941017 401440000
KBHK 160551Z AUTO 21011KT 10SM CLR 08/M01 A3014 RMK AO2 SLP209 T00831011 10111 20050 58018
KBHK 160451Z AUTO 20009KT 10SM CLR 06/M01 A3017 RMK AO2 SLP223 T00611011
KBHK 160351Z AUTO 19008KT 10SM CLR 05/M01 A3018 RMK AO2 SLP231 T00501011
KBHK 160251Z AUTO 19009KT 10SM CLR 06/M02 A3020 RMK AO2 SLP241 T00561017 58007
KBHK 160151Z AUTO 22009KT 10SM CLR 07/M02 A3022 RMK AO2 SLP248 T00671017
KBHK 160051Z AUTO 23006KT 10SM CLR 07/M01 A3021 RMK AO2 SLP249 T00721011
KBHK 152351Z AUTO 28008KT 10SM CLR 11/M01 A3022 RMK AO2 SLP246 T01111011 10144 20106 56006
KBHK 152251Z AUTO 29016G21KT 10SM CLR 13/M02 A3023 RMK AO2 SLP248 T01331017
KBHK 152151Z AUTO 29019G26KT 10SM CLR 14/M02 A3023 RMK AO2 PK WND 29026/2151 SLP246 T01391017